Time;durP1;ratioP1;P1;durP2;ratioP2;P2;SDS_P1;SDS_P2;PMS_P1;PMS_P2;Temp;Humidity;BMP_temperature;BMP_pressure;BME280_temperature;BME280_humidity;BME280_pressure;Samples;Min_cycle;Max_cycle;Signal;HPM_P1;HPM_P2
2023/04/11 00:02:03;;;;;;;10.30;7.15;;;;;;;11.24;93.76;99523.63;5024835;28;20434;-68
2023/04/11 00:04:29;;;;;;;11.20;7.70;;;;;;;11.20;93.78;99517.84;5026179;28;20041;-68
2023/04/11 00:06:55;;;;;;;9.55;7.03;;;;;;;11.20;93.77;99520.50;5024416;28;20233;-69
2023/04/11 00:09:20;;;;;;;12.30;7.68;;;;;;;11.24;93.28;99517.50;5023017;28;20128;-66
2023/04/11 00:11:46;;;;;;;10.82;7.15;;;;;;;11.23;93.32;99524.63;5021718;28;20278;-66
2023/04/11 00:14:14;;;;;;;12.75;7.60;;;;;;;11.27;92.91;99520.66;5021348;28;20033;-68
2023/04/11 00:16:40;;;;;;;8.93;6.70;;;;;;;11.26;92.29;99519.00;5023303;28;20033;-69
2023/04/11 00:19:08;;;;;;;10.63;7.10;;;;;;;11.16;92.82;99524.50;5025187;28;20034;-68
2023/04/11 00:21:34;;;;;;;10.77;7.20;;;;;;;11.24;93.47;99523.63;5020646;28;20034;-68
2023/04/11 00:24:00;;;;;;;8.50;6.47;;;;;;;10.98;94.45;99534.50;5021609;28;20295;-68
2023/04/11 00:26:26;;;;;;;10.23;6.85;;;;;;;11.22;93.23;99530.94;5023780;28;20041;-68
2023/04/11 00:28:51;;;;;;;11.23;7.18;;;;;;;11.30;93.28;99528.25;5020710;28;20085;-68
2023/04/11 00:31:17;;;;;;;12.50;7.45;;;;;;;11.37;92.82;99518.63;5019524;28;20077;-69
2023/04/11 00:33:42;;;;;;;12.98;7.95;;;;;;;11.42;93.07;99518.09;5020289;28;20358;-65
2023/04/11 00:36:08;;;;;;;12.45;8.13;;;;;;;11.45;93.29;99515.97;5025066;28;20030;-66
2023/04/11 00:38:35;;;;;;;18.60;13.18;;;;;;;11.56;92.76;99508.63;5024249;28;20037;-65
2023/04/11 00:41:00;;;;;;;12.98;9.10;;;;;;;11.50;92.37;99512.78;5020694;28;21024;-66
2023/04/11 00:43:26;;;;;;;12.70;7.95;;;;;;;11.37;92.60;99515.97;5024050;28;20053;-66
2023/04/11 00:45:51;;;;;;;12.90;8.73;;;;;;;11.46;92.45;99512.31;5020448;28;20053;-67
2023/04/11 00:48:17;;;;;;;12.88;8.13;;;;;;;11.43;91.96;99504.66;5030867;28;20049;-67
2023/04/11 00:50:43;;;;;;;11.48;7.45;;;;;;;11.39;91.49;99500.72;5024676;28;20038;-69
2023/04/11 00:53:11;;;;;;;15.27;8.57;;;;;;;11.46;92.37;99520.25;5020899;28;20083;-67
2023/04/11 00:55:37;;;;;;;13.32;8.45;;;;;;;11.51;91.71;99514.44;5021254;28;20033;-66
2023/04/11 00:58:04;;;;;;;11.40;7.88;;;;;;;11.48;91.51;99518.25;5024024;28;20076;-68
2023/04/11 01:00:34;;;;;;;12.57;7.55;;;;;;;11.49;92.19;99514.63;5030403;28;20029;-66
2023/04/11 01:02:59;;;;;;;12.95;8.32;;;;;;;11.42;92.91;99513.63;5023778;28;20029;-67
2023/04/11 01:05:25;;;;;;;12.02;8.25;;;;;;;11.41;94.92;99508.50;5021384;28;20355;-67
2023/04/11 01:07:53;;;;;;;13.57;8.25;;;;;;;11.46;96.09;99516.78;5022737;28;20348;-66
2023/04/11 01:10:19;;;;;;;13.32;9.27;;;;;;;11.41;96.97;99511.97;5024866;28;20029;-65
2023/04/11 01:12:45;;;;;;;12.10;8.60;;;;;;;11.41;97.09;99508.50;5021931;28;20037;-69
2023/04/11 01:15:11;;;;;;;12.45;8.48;;;;;;;11.45;97.34;99502.69;5019194;28;20029;-65
2023/04/11 01:17:37;;;;;;;16.38;8.75;;;;;;;11.50;97.98;99497.69;5022178;28;20730;-69
2023/04/11 01:20:06;;;;;;;14.48;9.65;;;;;;;11.54;97.97;99500.84;5022281;28;20105;-69
2023/04/11 01:22:34;;;;;;;15.63;9.10;;;;;;;11.55;97.13;99504.31;5020620;28;20228;-66
2023/04/11 01:25:00;;;;;;;15.23;9.18;;;;;;;11.49;97.30;99500.53;5022670;28;20045;-66
2023/04/11 01:27:26;;;;;;;15.20;9.00;;;;;;;11.41;97.29;99504.00;5022556;28;20034;-66
2023/04/11 01:29:52;;;;;;;12.60;7.95;;;;;;;11.42;97.52;99494.22;5021914;28;20046;-69
2023/04/11 01:32:17;;;;;;;10.63;7.70;;;;;;;11.34;96.83;99496.94;5021679;28;20037;-66
2023/04/11 01:34:45;;;;;;;9.70;7.18;;;;;;;11.26;96.79;99489.84;5024064;28;20034;-69
2023/04/11 01:37:11;;;;;;;11.43;7.20;;;;;;;11.29;96.95;99494.78;5024337;28;20040;-69
2023/04/11 01:39:37;;;;;;;10.13;6.90;;;;;;;11.32;95.82;99488.31;5021140;28;20061;-65
2023/04/11 01:42:03;;;;;;;9.75;6.30;;;;;;;11.25;95.59;99480.22;5021768;28;20034;-67
2023/04/11 01:44:31;;;;;;;9.18;6.25;;;;;;;11.22;95.34;99495.66;5021718;28;20096;-69
2023/04/11 01:46:56;;;;;;;11.13;6.47;;;;;;;11.19;94.79;99483.56;5023512;28;20251;-68
2023/04/11 01:49:23;;;;;;;10.18;6.30;;;;;;;11.09;95.00;99469.72;5020525;28;20041;-69
2023/04/11 01:51:49;;;;;;;10.15;6.80;;;;;;;11.15;95.71;99479.63;5019436;28;20037;-65
2023/04/11 01:54:14;;;;;;;10.23;6.38;;;;;;;11.20;95.49;99480.75;5019511;28;20267;-69
2023/04/11 01:56:40;;;;;;;11.77;7.30;;;;;;;11.27;95.75;99477.41;5018893;28;20025;-66
2023/04/11 01:59:05;;;;;;;8.75;6.20;;;;;;;11.23;95.13;99482.22;5020637;28;20115;-66
2023/04/11 02:01:31;;;;;;;10.95;7.40;;;;;;;11.24;95.18;99475.09;5022274;28;20137;-68
2023/04/11 02:03:57;;;;;;;9.75;6.57;;;;;;;11.26;95.00;99476.59;5022821;28;20048;-69
2023/04/11 02:06:22;;;;;;;9.80;7.20;;;;;;;11.20;94.55;99474.63;5019108;28;20347;-69
2023/04/11 02:08:48;;;;;;;10.80;6.30;;;;;;;11.21;94.81;99473.63;5020366;28;20101;-66
2023/04/11 02:11:13;;;;;;;11.43;7.05;;;;;;;11.26;94.62;99465.16;5023040;28;20042;-66
2023/04/11 02:13:39;;;;;;;11.57;6.97;;;;;;;11.31;94.53;99460.16;5023228;28;20041;-66
2023/04/11 02:16:16;;;;;;;12.00;8.00;;;;;;;11.27;93.64;99459.69;5021545;28;21290;-68
2023/04/11 02:18:43;;;;;;;12.23;7.28;;;;;;;11.22;93.78;99459.38;5017720;28;20352;-69
2023/04/11 02:21:09;;;;;;;11.52;7.43;;;;;;;11.22;94.47;99461.19;5020127;28;20278;-68
2023/04/11 02:23:35;;;;;;;11.70;7.80;;;;;;;11.18;94.40;99450.94;5019927;28;20045;-66
2023/04/11 02:26:02;;;;;;;15.30;8.57;;;;;;;11.18;94.00;99461.53;5019561;28;20040;-68
2023/04/11 02:28:27;;;;;;;10.55;7.50;;;;;;;11.10;94.41;99450.16;5029673;28;20041;-68
2023/04/11 02:30:54;;;;;;;12.68;8.05;;;;;;;11.02;95.18;99445.72;5018821;28;20044;-66
2023/04/11 02:33:20;;;;;;;12.68;8.18;;;;;;;11.04;94.77;99440.25;5023936;28;20045;-65
2023/04/11 02:35:45;;;;;;;11.73;7.50;;;;;;;11.09;95.29;99440.56;5029224;28;20388;-66
2023/04/11 02:38:11;;;;;;;12.68;7.50;;;;;;;11.03;94.34;99430.66;5022037;28;20103;-68
2023/04/11 02:40:37;;;;;;;12.13;8.00;;;;;;;10.96;94.83;99432.34;5022174;28;20030;-68
2023/04/11 02:43:02;;;;;;;11.18;7.20;;;;;;;10.85;95.24;99428.25;5020139;28;20072;-65
2023/04/11 02:45:28;;;;;;;9.05;7.10;;;;;;;10.83;95.30;99422.28;5021428;28;20075;-68
2023/04/11 02:47:53;;;;;;;13.25;7.32;;;;;;;10.79;95.33;99429.75;5020063;28;20076;-65
2023/04/11 02:50:19;;;;;;;8.65;6.80;;;;;;;10.84;95.87;99419.47;5018245;28;20363;-65
2023/04/11 02:52:46;;;;;;;10.88;7.00;;;;;;;10.85;95.21;99415.00;5022707;28;20052;-69
2023/04/11 02:55:11;;;;;;;10.32;7.05;;;;;;;10.80;95.60;99412.03;5022576;28;20041;-65
2023/04/11 02:57:37;;;;;;;11.38;6.72;;;;;;;10.81;95.87;99411.88;5021052;28;20135;-65
2023/04/11 03:00:05;;;;;;;10.90;6.80;;;;;;;10.77;95.48;99405.25;5019949;28;20060;-65
2023/04/11 03:02:31;;;;;;;9.82;6.03;;;;;;;10.71;95.66;99408.59;5019944;28;20038;-68
2023/04/11 03:04:57;;;;;;;10.00;6.50;;;;;;;10.66;95.53;99410.09;5017801;28;20254;-65
2023/04/11 03:07:23;;;;;;;9.45;6.78;;;;;;;10.70;95.44;99393.69;5022371;28;20036;-64
2023/04/11 03:09:49;;;;;;;10.30;6.90;;;;;;;10.74;95.40;99412.72;5022157;28;20322;-66
2023/04/11 03:12:15;;;;;;;11.52;7.05;;;;;;;10.70;95.50;99401.66;5022752;28;20084;-63
2023/04/11 03:14:40;;;;;;;10.02;6.95;;;;;;;10.68;95.34;99405.47;5019300;28;20344;-64
2023/04/11 03:17:06;;;;;;;10.80;6.82;;;;;;;10.69;95.31;99397.34;5019068;28;20208;-66
2023/04/11 03:19:31;;;;;;;12.82;7.88;;;;;;;10.62;95.43;99399.03;5024734;28;20112;-63
2023/04/11 03:21:57;;;;;;;11.15;7.47;;;;;;;10.56;95.74;99391.78;5024335;28;20213;-66
2023/04/11 03:24:22;;;;;;;11.43;7.53;;;;;;;10.53;95.17;99389.47;5021693;28;20041;-63
2023/04/11 03:26:48;;;;;;;11.27;7.18;;;;;;;10.45;95.12;99389.50;5020350;28;20041;-66
2023/04/11 03:29:13;;;;;;;11.00;7.20;;;;;;;10.52;95.26;99406.34;5018567;28;20339;-66
2023/04/11 03:31:39;;;;;;;11.10;7.50;;;;;;;10.58;94.60;99408.31;5027510;28;20033;-63
2023/04/11 03:34:06;;;;;;;8.35;6.10;;;;;;;10.53;94.71;99406.19;5025610;28;20092;-66
2023/04/11 03:36:31;;;;;;;10.30;7.13;;;;;;;10.46;95.25;99412.31;5024991;28;20217;-63
2023/04/11 03:38:57;;;;;;;10.32;6.38;;;;;;;10.40;95.63;99408.53;5023513;28;20378;-66
2023/04/11 03:41:23;;;;;;;11.00;6.95;;;;;;;10.43;95.00;99405.53;5021671;28;20366;-66
2023/04/11 03:43:48;;;;;;;9.82;6.68;;;;;;;10.45;95.08;99406.19;5021177;28;20068;-63
2023/04/11 03:46:14;;;;;;;10.30;6.95;;;;;;;10.45;95.57;99403.56;5024066;28;20068;-66
2023/04/11 03:48:39;;;;;;;10.60;6.90;;;;;;;10.45;94.58;99392.97;5024170;28;20382;-66
2023/04/11 03:51:05;;;;;;;10.13;6.78;;;;;;;10.43;94.55;99394.13;5025242;28;20044;-63
2023/04/11 03:53:31;;;;;;;9.55;6.93;;;;;;;10.46;94.99;99394.63;5022295;28;20258;-66
2023/04/11 03:55:56;;;;;;;10.20;6.28;;;;;;;10.51;94.88;99399.41;5021761;28;20037;-65
2023/04/11 03:58:22;;;;;;;10.52;7.07;;;;;;;10.54;94.63;99386.66;5024811;28;20037;-68
2023/04/11 04:00:48;;;;;;;11.82;6.75;;;;;;;10.55;94.83;99384.81;5024289;28;20053;-65
2023/04/11 04:03:13;;;;;;;10.60;6.95;;;;;;;10.54;95.08;99384.00;5025523;28;20380;-65
2023/04/11 04:05:40;;;;;;;8.15;6.20;;;;;;;10.55;94.13;99384.81;5022027;28;20037;-65
2023/04/11 04:08:06;;;;;;;11.85;6.68;;;;;;;10.57;94.78;99384.66;5021124;28;20383;-68
2023/04/11 04:10:31;;;;;;;11.48;7.45;;;;;;;10.48;94.84;99386.50;5026471;28;20310;-63
2023/04/11 04:12:57;;;;;;;10.55;6.07;;;;;;;10.52;94.83;99387.81;5024815;28;20046;-68
2023/04/11 04:15:23;;;;;;;11.13;7.45;;;;;;;10.55;94.79;99396.25;5022686;28;20104;-66
2023/04/11 04:17:49;;;;;;;10.82;6.95;;;;;;;10.52;94.25;99387.81;5021601;28;20050;-69
2023/04/11 04:20:15;;;;;;;9.60;7.22;;;;;;;10.48;95.01;99389.97;5023936;28;20128;-68
2023/04/11 04:22:40;;;;;;;12.90;7.03;;;;;;;10.46;94.95;99394.63;5020469;28;20132;-65
2023/04/11 04:25:08;;;;;;;9.85;6.72;;;;;;;10.44;95.12;99387.84;5024586;28;20355;-66
2023/04/11 04:27:33;;;;;;;10.68;6.82;;;;;;;10.46;95.35;99396.44;5024844;28;20033;-66
2023/04/11 04:29:59;;;;;;;12.95;6.97;;;;;;;10.48;94.64;99382.03;5023200;28;20089;-66
2023/04/11 04:32:27;;;;;;;10.88;6.50;;;;;;;10.53;94.36;99379.69;5025932;28;20029;-68
2023/04/11 04:34:56;;;;;;;10.60;7.03;;;;;;;10.58;94.39;99376.53;5023282;28;20366;-68
2023/04/11 04:37:24;;;;;;;10.70;7.50;;;;;;;10.54;94.26;99372.59;5022202;28;20057;-65
2023/04/11 04:39:56;;;;;;;8.32;5.55;;;;;;;10.49;94.19;99380.22;5021359;28;20059;-68
2023/04/11 04:42:22;;;;;;;8.25;5.78;;;;;;;10.48;93.79;99374.09;5021288;28;20034;-65
2023/04/11 04:44:49;;;;;;;10.43;6.47;;;;;;;10.50;93.70;99369.44;5023120;28;20140;-65
2023/04/11 04:47:15;;;;;;;9.73;6.68;;;;;;;10.50;94.08;99369.44;5022442;28;20105;-68
2023/04/11 04:49:42;;;;;;;8.55;5.57;;;;;;;10.51;93.57;99357.88;5021154;28;20038;-66
2023/04/11 04:52:07;;;;;;;11.00;6.65;;;;;;;10.51;93.55;99352.56;5024618;28;20029;-66
2023/04/11 04:54:33;;;;;;;10.18;6.90;;;;;;;10.50;94.52;99365.97;5024156;28;20057;-65
2023/04/11 04:57:00;;;;;;;9.90;6.53;;;;;;;10.52;94.51;99350.75;5022719;28;20033;-68
2023/04/11 04:59:25;;;;;;;8.55;6.32;;;;;;;10.55;94.43;99353.88;5028667;28;20308;-68
2023/04/11 05:01:52;;;;;;;9.65;6.38;;;;;;;10.62;93.81;99348.72;5024120;28;20075;-68
2023/04/11 05:04:18;;;;;;;11.20;6.65;;;;;;;10.64;93.20;99351.19;5021588;28;20329;-65
2023/04/11 05:06:43;;;;;;;10.38;6.95;;;;;;;10.68;93.19;99344.56;5024549;28;20267;-65
2023/04/11 05:09:09;;;;;;;11.95;6.63;;;;;;;10.69;93.43;99348.88;5020434;28;20037;-64
2023/04/11 05:11:34;;;;;;;10.30;7.30;;;;;;;10.72;93.52;99352.00;5020559;28;20037;-68
2023/04/11 05:14:00;;;;;;;13.07;8.02;;;;;;;10.73;93.29;99343.03;5023668;28;20418;-67
2023/04/11 05:16:26;;;;;;;13.05;7.80;;;;;;;10.72;93.67;99349.34;5022053;28;20045;-65
2023/04/11 05:18:51;;;;;;;14.23;8.90;;;;;;;10.70;93.78;99338.09;5020813;28;20034;-68
2023/04/11 05:21:17;;;;;;;13.30;8.80;;;;;;;10.80;93.61;99346.66;5021045;28;20041;-69
2023/04/11 05:23:42;;;;;;;13.55;8.77;;;;;;;10.85;93.55;99349.59;5021586;28;20363;-66
2023/04/11 05:26:08;;;;;;;11.70;8.00;;;;;;;10.87;92.84;99344.13;5024674;28;20052;-68
2023/04/11 05:28:35;;;;;;;13.25;7.85;;;;;;;10.90;92.72;99348.25;5030398;28;20121;-68
2023/04/11 05:31:03;;;;;;;13.85;8.27;;;;;;;10.91;92.51;99345.44;5031780;28;20036;-66
2023/04/11 05:33:29;;;;;;;10.77;7.93;;;;;;;10.96;92.73;99331.69;5028826;28;20293;-68
2023/04/11 05:35:55;;;;;;;12.40;8.23;;;;;;;11.00;92.35;99327.69;5032519;28;20443;-65
2023/04/11 05:38:20;;;;;;;12.25;7.80;;;;;;;11.08;91.88;99339.06;5029238;28;20350;-66
2023/04/11 05:40:46;;;;;;;12.27;7.82;;;;;;;11.13;92.14;99331.41;5031196;28;20037;-65
2023/04/11 05:43:13;;;;;;;13.80;8.20;;;;;;;11.13;91.72;99327.94;5030200;28;20090;-66
2023/04/11 05:45:46;;;;;;;13.18;7.97;;;;;;;11.21;91.89;99330.53;5031484;28;20064;-65
2023/04/11 05:48:15;;;;;;;13.20;8.63;;;;;;;11.30;92.25;99323.34;5031266;28;20037;-68
2023/04/11 05:50:41;;;;;;;11.10;7.95;;;;;;;11.28;92.45;99320.88;5030240;28;20064;-65
2023/04/11 05:53:07;;;;;;;13.57;8.60;;;;;;;11.30;91.50;99326.81;5031496;28;20029;-68
2023/04/11 05:55:33;;;;;;;11.82;8.30;;;;;;;11.36;91.01;99333.22;5030445;28;20063;-66
2023/04/11 05:57:58;;;;;;;14.60;8.48;;;;;;;11.40;90.84;99335.34;5031381;28;20118;-65
2023/04/11 06:00:27;;;;;;;13.38;7.95;;;;;;;11.35;90.89;99332.41;5028837;28;20387;-68
2023/04/11 06:02:53;;;;;;;13.98;8.40;;;;;;;11.31;90.99;99344.38;5031057;28;20041;-65
2023/04/11 06:05:20;;;;;;;11.70;7.82;;;;;;;11.32;90.19;99343.38;5031197;28;20064;-65
2023/04/11 06:07:45;;;;;;;10.68;7.18;;;;;;;11.31;90.75;99336.41;5029393;28;20096;-65
2023/04/11 06:10:11;;;;;;;9.95;7.22;;;;;;;11.40;91.28;99334.53;5030591;28;20044;-65
2023/04/11 06:12:37;;;;;;;11.60;7.15;;;;;;;11.43;90.60;99336.81;5030330;28;20040;-65
2023/04/11 06:15:02;;;;;;;10.88;7.05;;;;;;;11.51;91.20;99331.50;5031550;28;20041;-68
2023/04/11 06:17:28;;;;;;;8.98;6.03;;;;;;;11.52;90.42;99330.47;5029773;28;20357;-68
2023/04/11 06:19:54;;;;;;;11.35;7.18;;;;;;;11.52;89.73;99315.41;5032245;28;20049;-68
2023/04/11 06:22:19;;;;;;;10.00;6.28;;;;;;;11.61;90.78;99324.13;5031123;28;20041;-68
2023/04/11 06:24:45;;;;;;;8.88;6.20;;;;;;;11.60;90.29;99325.13;5028776;28;20109;-65
2023/04/11 06:27:11;;;;;;;9.63;6.03;;;;;;;11.69;89.65;99316.09;5031375;28;20057;-65
2023/04/11 06:29:37;;;;;;;6.95;5.20;;;;;;;11.68;87.38;99317.09;5029953;28;20293;-68
2023/04/11 06:32:03;;;;;;;9.73;5.82;;;;;;;11.73;86.68;99311.25;5029111;28;20044;-65
2023/04/11 06:34:28;;;;;;;9.90;5.13;;;;;;;11.61;86.97;99302.06;5029216;28;20049;-68
2023/04/11 06:36:54;;;;;;;7.68;5.00;;;;;;;11.65;85.07;99308.66;5029313;28;20041;-65
2023/04/11 06:39:20;;;;;;;7.45;4.78;;;;;;;11.63;85.62;99306.19;5030653;28;20044;-66
2023/04/11 06:41:46;;;;;;;8.65;5.00;;;;;;;11.57;85.88;99309.56;5027807;28;20025;-67
2023/04/11 06:44:12;;;;;;;7.50;5.13;;;;;;;11.46;87.54;99302.03;5028365;28;20355;-69
2023/04/11 06:46:38;;;;;;;7.15;4.70;;;;;;;11.45;87.64;99298.56;5028469;28;20049;-67
2023/04/11 06:49:06;;;;;;;9.10;5.38;;;;;;;11.57;88.14;99312.22;5028202;28;20052;-68
2023/04/11 06:51:32;;;;;;;8.82;5.30;;;;;;;11.63;87.70;99303.53;5031023;28;20793;-68
2023/04/11 06:53:58;;;;;;;8.25;5.07;;;;;;;11.76;85.82;99305.56;5025699;28;20112;-66
2023/04/11 06:56:24;;;;;;;7.68;5.00;;;;;;;11.86;86.08;99298.22;5028052;28;20041;-66
2023/04/11 06:58:50;;;;;;;6.28;4.57;;;;;;;11.92;85.24;99296.66;5029339;28;20040;-66
2023/04/11 07:01:15;;;;;;;8.25;5.15;;;;;;;11.88;83.71;99298.03;5030162;28;20061;-68
2023/04/11 07:03:42;;;;;;;7.72;5.18;;;;;;;11.92;84.62;99300.16;5030122;28;20235;-68
2023/04/11 07:06:07;;;;;;;11.52;6.82;;;;;;;11.95;84.42;99302.44;5030120;28;20045;-66
2023/04/11 07:08:33;;;;;;;9.35;5.63;;;;;;;11.95;82.92;99298.97;5031759;28;20036;-68
2023/04/11 07:10:59;;;;;;;9.93;7.10;;;;;;;11.98;82.02;99295.94;5033562;28;20307;-65
2023/04/11 07:13:24;;;;;;;11.15;7.22;;;;;;;11.90;81.63;99298.69;5031691;28;20406;-68
2023/04/11 07:15:50;;;;;;;11.15;6.32;;;;;;;12.03;80.34;99301.53;5033419;28;20045;-68
2023/04/11 07:18:15;;;;;;;10.68;7.22;;;;;;;12.02;79.70;99303.34;5037602;28;20045;-68
2023/04/11 07:20:41;;;;;;;8.77;6.43;;;;;;;12.02;81.08;99306.00;5039694;28;20037;-68
2023/04/11 07:23:07;;;;;;;10.73;7.00;;;;;;;12.12;80.93;99303.09;5040101;28;20041;-68
2023/04/11 07:25:32;;;;;;;10.40;6.05;;;;;;;12.17;80.93;99300.72;5040115;28;20036;-68
2023/04/11 07:27:59;;;;;;;13.23;6.15;;;;;;;12.25;79.33;99297.13;5039402;28;20172;-68
2023/04/11 07:30:26;;;;;;;12.10;6.93;;;;;;;12.33;80.28;99292.56;5038805;28;20117;-68
2023/04/11 07:32:51;;;;;;;9.63;6.68;;;;;;;12.52;80.74;99295.69;5039066;28;20064;-65
2023/04/11 07:35:17;;;;;;;10.05;6.50;;;;;;;12.61;81.47;99299.88;5038680;28;20025;-66
2023/04/11 07:37:44;;;;;;;11.50;7.07;;;;;;;12.73;80.30;99291.25;5039438;28;20294;-66
2023/04/11 07:40:12;;;;;;;10.15;7.00;;;;;;;12.83;79.61;99290.13;5038579;28;20033;-68
2023/04/11 07:42:38;;;;;;;10.50;7.03;;;;;;;12.89;79.73;99290.19;5040219;28;20029;-68
2023/04/11 07:45:05;;;;;;;9.50;6.43;;;;;;;12.91;78.41;99276.72;5039988;28;20060;-68
2023/04/11 07:47:30;;;;;;;10.98;7.80;;;;;;;12.91;78.95;99280.19;5040401;28;20040;-68
2023/04/11 07:49:57;;;;;;;12.95;8.20;;;;;;;12.89;77.38;99286.72;5039869;28;20391;-65
2023/04/11 07:52:23;;;;;;;12.13;7.65;;;;;;;12.86;78.94;99284.44;5040125;28;20037;-69
2023/04/11 07:54:48;;;;;;;12.05;7.75;;;;;;;12.87;79.01;99284.25;5037935;28;20334;-67
2023/04/11 07:57:14;;;;;;;12.30;8.20;;;;;;;12.82;78.62;99281.31;5039112;28;20406;-68
2023/04/11 07:59:39;;;;;;;13.13;8.40;;;;;;;12.86;77.60;99293.22;5047577;28;20042;-68
2023/04/11 08:02:06;;;;;;;9.15;6.53;;;;;;;12.71;77.08;99277.31;5039260;28;20060;-68
2023/04/11 08:04:32;;;;;;;49.63;27.98;;;;;;;12.86;78.71;99281.78;5039178;28;20053;-68
2023/04/11 08:06:58;;;;;;;12.75;8.65;;;;;;;12.92;77.09;99279.19;5037688;28;20414;-68
2023/04/11 08:09:26;;;;;;;13.77;9.50;;;;;;;13.00;77.91;99273.75;5038767;28;20049;-68
2023/04/11 08:11:52;;;;;;;14.82;8.73;;;;;;;13.09;77.40;99283.25;5040107;28;20042;-66
2023/04/11 08:14:17;;;;;;;13.75;8.55;;;;;;;13.16;76.49;99266.53;5039954;28;20041;-66
2023/04/11 08:16:43;;;;;;;14.93;9.20;;;;;;;13.21;77.37;99272.97;5039091;28;20259;-69
2023/04/11 08:19:10;;;;;;;15.35;8.82;;;;;;;13.26;76.29;99269.72;5037095;28;20037;-68
2023/04/11 08:21:36;;;;;;;12.23;8.75;;;;;;;13.18;75.89;99269.88;5039626;28;20132;-66
2023/04/11 08:24:01;;;;;;;13.00;8.48;;;;;;;13.09;74.58;99259.31;5039237;28;20148;-68
2023/04/11 08:26:27;;;;;;;11.57;8.63;;;;;;;13.19;75.34;99258.22;5039445;28;20594;-66
2023/04/11 08:28:52;;;;;;;12.02;8.95;;;;;;;13.16;75.48;99247.94;5038138;28;20049;-66
2023/04/11 08:31:18;;;;;;;15.50;8.82;;;;;;;13.09;74.86;99253.19;5039143;28;20041;-65
2023/04/11 08:33:43;;;;;;;15.35;9.73;;;;;;;13.25;75.35;99260.94;5039204;28;20398;-68
2023/04/11 08:36:10;;;;;;;13.25;9.25;;;;;;;13.23;74.32;99252.31;5039251;28;20072;-68
2023/04/11 08:38:36;;;;;;;13.52;8.95;;;;;;;13.04;74.33;99244.97;5039479;28;20038;-69
2023/04/11 08:41:01;;;;;;;14.95;9.50;;;;;;;13.14;74.18;99244.63;5036450;28;20041;-65
2023/04/11 08:43:27;;;;;;;14.15;9.13;;;;;;;13.15;75.18;99249.78;5039129;28;20389;-66
2023/04/11 08:45:53;;;;;;;16.23;9.85;;;;;;;13.01;74.34;99240.84;5038684;28;20192;-68
2023/04/11 08:48:23;;;;;;;14.13;9.45;;;;;;;13.00;75.08;99243.69;5038459;28;20044;-65
2023/04/11 08:50:49;;;;;;;14.80;9.20;;;;;;;13.08;74.32;99236.41;5037578;28;20040;-68
2023/04/11 08:53:17;;;;;;;15.25;9.77;;;;;;;13.13;74.43;99241.16;5037982;28;20041;-66
2023/04/11 08:55:46;;;;;;;12.15;8.43;;;;;;;13.11;73.75;99232.56;5036339;28;20343;-68
2023/04/11 08:58:12;;;;;;;13.30;9.82;;;;;;;13.02;73.74;99201.81;5038169;28;20064;-65
2023/04/11 09:00:38;;;;;;;14.52;9.60;;;;;;;13.29;73.90;99226.81;5037993;28;20308;-68
2023/04/11 09:03:07;;;;;;;14.73;9.90;;;;;;;13.32;72.42;99226.44;5037962;28;20119;-68
2023/04/11 09:05:40;;;;;;;11.70;9.02;;;;;;;13.45;73.20;99223.88;5038101;28;20045;-65
2023/04/11 09:08:11;;;;;;;12.52;9.20;;;;;;;13.49;72.10;99219.00;5038414;28;20044;-66
2023/04/11 09:10:43;;;;;;;14.77;9.75;;;;;;;13.52;72.72;99207.97;5038071;28;20063;-69
2023/04/11 09:13:22;;;;;;;14.02;9.50;;;;;;;13.69;73.10;99209.34;5037652;28;20037;-68
2023/04/11 09:16:09;;;;;;;13.10;9.05;;;;;;;13.73;71.59;99205.28;5036484;28;20212;-68
2023/04/11 09:18:39;;;;;;;15.25;9.20;;;;;;;13.84;72.40;99206.56;5038662;28;20041;-66
2023/04/11 09:21:15;;;;;;;13.50;9.18;;;;;;;13.87;71.43;99193.69;5038211;28;20033;-68
2023/04/11 09:23:42;;;;;;;12.68;8.68;;;;;;;13.98;71.29;99192.31;5037761;28;20037;-66
2023/04/11 09:26:10;;;;;;;14.60;10.00;;;;;;;14.09;72.40;99199.72;5036055;28;20100;-64
2023/04/11 09:28:43;;;;;;;12.60;9.25;;;;;;;14.11;70.24;99187.03;5037167;28;20041;-64
2023/04/11 09:31:11;;;;;;;14.27;9.50;;;;;;;14.16;70.82;99199.75;5034904;28;20033;-64
2023/04/11 09:33:37;;;;;;;14.90;8.93;;;;;;;14.28;68.47;99191.00;5037671;28;20098;-68
2023/04/11 09:36:17;;;;;;;14.38;9.93;;;;;;;14.38;69.02;99177.31;5037071;28;20029;-66
2023/04/11 09:38:43;;;;;;;13.20;9.07;;;;;;;14.65;68.27;99188.91;5037267;28;20068;-66
2023/04/11 09:41:08;;;;;;;12.07;8.68;;;;;;;14.81;67.21;99177.06;5037853;28;20030;-67
2023/04/11 09:43:56;;;;;;;11.93;7.97;;;;;;;14.94;66.35;99175.22;5037410;28;20295;-64
2023/04/11 09:46:22;;;;;;;15.05;10.32;;;;;;;15.00;66.76;99171.75;5038012;28;20338;-64
2023/04/11 09:48:50;;;;;;;15.50;8.95;;;;;;;15.10;64.51;99170.50;5037907;28;20049;-67
2023/04/11 09:51:16;;;;;;;12.05;8.35;;;;;;;15.00;65.26;99165.59;5037527;28;20074;-64
2023/04/11 09:53:42;;;;;;;15.85;9.00;;;;;;;15.11;66.53;99156.16;5037039;28;20051;-64
2023/04/11 09:56:08;;;;;;;13.88;9.00;;;;;;;15.19;64.00;99153.28;5037225;28;20061;-64
2023/04/11 09:58:36;;;;;;;11.45;8.10;;;;;;;14.96;61.50;99145.69;5036535;28;20041;-64
2023/04/11 10:01:06;;;;;;;9.98;7.07;;;;;;;14.87;63.27;99147.75;5036385;28;20245;-63
2023/04/11 10:03:35;;;;;;;12.15;8.60;;;;;;;15.00;63.82;99146.94;5036895;28;20057;-65
2023/04/11 10:06:13;;;;;;;11.10;8.35;;;;;;;14.96;63.07;99140.38;5036575;28;20044;-67
2023/04/11 10:08:40;;;;;;;12.15;8.52;;;;;;;15.04;63.36;99145.50;5036618;28;20038;-67
2023/04/11 10:11:13;;;;;;;10.85;7.80;;;;;;;15.06;62.13;99127.44;5037278;28;20087;-64
2023/04/11 10:13:41;;;;;;;9.45;7.22;;;;;;;15.06;60.70;99134.63;5036545;28;20044;-65
2023/04/11 10:16:12;;;;;;;10.98;7.97;;;;;;;15.15;62.61;99128.06;5036701;28;20049;-64
2023/04/11 10:18:57;;;;;;;12.70;7.90;;;;;;;15.18;61.80;99125.78;5037978;28;20274;-65
2023/04/11 10:21:28;;;;;;;11.38;6.97;;;;;;;15.05;61.93;99119.66;5037238;28;20029;-66
2023/04/11 10:24:21;;;;;;;9.43;7.15;;;;;;;15.26;60.97;99130.09;5037090;28;20029;-67
2023/04/11 10:26:54;;;;;;;11.82;7.05;;;;;;;15.37;61.07;99112.63;5037301;28;20258;-65
2023/04/11 10:29:41;;;;;;;12.43;7.90;;;;;;;15.54;58.96;99109.31;5032293;28;20357;-65
2023/04/11 10:32:16;;;;;;;9.95;6.70;;;;;;;15.36;58.50;99103.81;5037656;28;20036;-64
2023/04/11 10:34:50;;;;;;;12.15;6.82;;;;;;;15.48;58.96;99094.13;5037723;28;20309;-67
2023/04/11 10:37:18;;;;;;;14.23;8.85;;;;;;;15.69;59.20;99094.97;5037338;28;20048;-65
2023/04/11 10:39:49;;;;;;;10.80;6.97;;;;;;;15.74;58.90;99087.97;5036286;28;20332;-65
2023/04/11 10:42:45;;;;;;;9.32;7.20;;;;;;;15.87;59.11;99076.41;5036644;28;20247;-67
2023/04/11 10:45:24;;;;;;;8.95;6.90;;;;;;;16.03;57.71;99077.78;5036080;28;20408;-67
2023/04/11 10:47:55;;;;;;;11.05;7.60;;;;;;;16.05;57.16;99078.38;5036990;28;20059;-67
2023/04/11 10:50:33;;;;;;;10.90;7.82;;;;;;;16.01;56.07;99077.97;5037279;28;20041;-65
2023/04/11 10:53:00;;;;;;;9.55;6.60;;;;;;;16.06;52.69;99072.00;5037020;28;20037;-67
2023/04/11 10:55:27;;;;;;;9.20;7.38;;;;;;;16.03;54.72;99069.75;5037088;28;20029;-67
2023/04/11 10:58:06;;;;;;;9.07;6.07;;;;;;;16.15;52.59;99052.03;5037051;28;20037;-64
2023/04/11 11:00:49;;;;;;;8.05;7.18;;;;;;;16.31;54.12;99056.84;5036623;28;20348;-65
2023/04/11 11:03:16;;;;;;;9.05;6.90;;;;;;;16.43;51.44;99054.31;5036677;28;20037;-67
2023/04/11 11:05:41;;;;;;;8.82;5.90;;;;;;;16.48;49.46;99052.63;5037353;28;20124;-67
2023/04/11 11:08:07;;;;;;;9.82;6.82;;;;;;;16.58;47.81;99050.28;5036941;28;20370;-67
2023/04/11 11:10:44;;;;;;;8.77;6.57;;;;;;;16.72;49.21;99043.03;5036318;28;20033;-67
2023/04/11 11:13:14;;;;;;;11.70;6.57;;;;;;;16.73;47.56;99033.97;5036847;28;20045;-65
2023/04/11 11:15:48;;;;;;;8.52;5.70;;;;;;;16.83;43.18;99023.59;5036658;28;20041;-67
2023/04/11 11:18:15;;;;;;;7.97;5.80;;;;;;;16.71;43.52;99014.66;5035544;28;20037;-66
2023/04/11 11:20:41;;;;;;;9.40;6.32;;;;;;;16.85;43.61;99021.53;5035406;28;20029;-65
2023/04/11 11:23:09;;;;;;;5.68;4.60;;;;;;;16.80;43.34;99009.84;5035027;28;20597;-67
2023/04/11 11:25:35;;;;;;;7.05;5.55;;;;;;;16.90;45.46;99011.00;5030653;28;20095;-67
2023/04/11 11:28:07;;;;;;;8.82;6.05;;;;;;;16.95;43.86;99021.03;5029980;28;20050;-65